21:37
Airports
History
Links
Donate
Help keep this website running!
PayPal
Bitcoin
This page is community maintained. The information is intended for PC simulator navigation or reference.
Always use approved charts for navigation.
EBHN
EBHNEdited 30-Jun-2011
EBHN (EBHN)
Stabroek, Flemish Region, Belgium (2940)
4
Lat/Lng:51° 18' 54" N / 4° 23' 36" E
51.314999 / 4.393332
Elevation:32'ft / 10mMSL
ID / ICAO:EBHN
Runways:1
Longest:(15-33) 595.5m / 1,954ft Grass
Distance To
Airport ID:
Airport Radio Frequencies
Brussels Info: 126.9
Hoevenen Radio: 135
Nearby VORs <50NM
Nearby NDBs
Nearby WeatherUpdated 08-16-17 21:20 GMT
Nearby weather at EBAW, Antwerp Deurne located 9.1 nautical miles from EBHN
Altimeter: 30.09
Visibility: 6.2 statute miles
Wind: 3 knots (140°)
Temp: 14°c 57°f
Humidity: 87.7%

METAR: EBAW 162120Z AUTO 14003KT CAVOK 14/12 Q1019

(Powered by phpweather)
Runway 15 / 33
Dimensions:595.5 x 18.3m 1954' x 60'ft
Surface:Grass
Edge Lights:Medium intensity
Runway 15 [A]Runway 33 [B]
Heading:150°TH 330°TH
Lat:
Lng:
51° 19' 2.49"N
4° 23' 28.46"E
51° 18' 45.5"N
4° 23' 43.53"E
User Notes and Comments
Google Map
Nearby Airports
(C) Brasschaat 5.1 NM
EBBT ENE 69°
(C) Antwerp Deurne 9.1 NM
EBAW (WX) SSE 160°
(C) Woensdrecht 9.5 NM
EHWO (WX) NNW 346°
(C) Zoersel 16.0 NM
EBZR ESE 102°
(C) Seppe 18.0 NM
EHSE NNE 22°
(U) WEELDE 25.1 NM
EBWE ENE 77°
(C) Grimbergen 25.3 NM
EBGB S 179°
VFR Chart
Flight Planning at SkyVector.com